Metar z połowy godziny Komunikat METAR ze strony awiacja.imgw.pl Metar G30 EPSC METAR EPSC 190230Z 24005KT 210V280 CAVOK 18/13 Q1017 =